Time;durP1;ratioP1;P1;durP2;ratioP2;P2;SDS_P1;SDS_P2;PMS_P1;PMS_P2;Temp;Humidity;BMP_temperature;BMP_pressure;BME280_temperature;BME280_humidity;BME280_pressure;Samples;Min_cycle;Max_cycle;Signal;HPM_P1;HPM_P2
2021/11/25 20:35:51;;;;;;;9.30;3.47;;;6.20;99.90;;;;;;5087692;27;20577;-79
2021/11/25 20:38:41;;;;;;;11.57;3.10;;;6.50;99.90;;;;;;5087965;28;20197;-82
2021/11/25 20:41:11;;;;;;;14.13;3.40;;;6.40;99.90;;;;;;5191749;23;20221;-80
2021/11/25 20:43:38;;;;;;;10.23;3.67;;;6.40;99.90;;;;;;5063978;28;20222;-79
2021/11/25 20:46:06;;;;;;;11.38;3.80;;;6.30;99.90;;;;;;5053510;28;20445;-79
2021/11/25 20:48:39;;;;;;;10.50;3.10;;;6.40;99.90;;;;;;5054607;28;20281;-79
2021/11/25 20:51:07;;;;;;;11.03;3.43;;;6.40;99.90;;;;;;5058438;28;20307;-78
2021/11/25 20:56:15;;;;;;;10.77;2.87;;;6.30;99.90;;;;;;5066163;28;20294;-79
2021/11/25 20:58:45;;;;;;;8.97;3.30;;;6.30;99.90;;;;;;5061993;28;20214;-79
2021/11/25 21:01:13;;;;;;;5.73;2.87;;;6.20;99.90;;;;;;5065012;28;20215;-79
2021/11/25 21:03:40;;;;;;;10.57;2.90;;;6.30;99.90;;;;;;5057910;28;20221;-79
2021/11/25 21:06:08;;;;;;;13.20;3.43;;;6.10;99.90;;;;;;5056682;28;20199;-79
2021/11/25 21:08:43;;;;;;;5.30;2.80;;;6.10;99.90;;;;;;5057106;28;20203;-79
2021/11/25 21:11:10;;;;;;;6.03;2.70;;;6.00;99.90;;;;;;5057504;28;20202;-78
2021/11/25 21:13:37;;;;;;;7.37;3.00;;;6.00;99.90;;;;;;5040207;28;20200;-79
2021/11/25 21:16:04;;;;;;;10.50;3.30;;;6.00;99.90;;;;;;5038844;28;20234;-79
2021/11/25 21:18:34;;;;;;;5.70;2.83;;;6.10;99.90;;;;;;5038370;28;20222;-79
2021/11/25 21:21:01;;;;;;;6.67;2.77;;;6.10;99.90;;;;;;5037631;28;20250;-79
2021/11/25 21:23:31;;;;;;;15.37;3.90;;;6.10;99.90;;;;;;5038650;28;20233;-80
2021/11/25 21:26:01;;;;;;;5.07;2.50;;;6.00;99.90;;;;;;5039244;28;20670;-79
2021/11/25 21:28:29;;;;;;;8.30;2.60;;;6.00;99.90;;;;;;5037662;28;20203;-79
2021/11/25 21:30:56;;;;;;;5.77;2.53;;;5.90;99.90;;;;;;5037752;28;20215;-79
2021/11/25 21:33:25;;;;;;;7.20;2.23;;;5.90;99.90;;;;;;5036340;28;20689;-79
2021/11/25 21:35:52;;;;;;;7.23;2.43;;;5.90;99.90;;;;;;5028472;28;20617;-79
2021/11/25 21:38:19;;;;;;;7.73;2.47;;;5.80;99.90;;;;;;5023825;28;20216;-79
2021/11/25 21:40:49;;;;;;;5.77;2.10;;;5.90;99.90;;;;;;5022501;28;20306;-79
2021/11/25 21:43:15;;;;;;;8.17;2.20;;;5.90;99.90;;;;;;5023719;28;20206;-79
2021/11/25 21:45:44;;;;;;;5.10;2.13;;;5.90;99.90;;;;;;5022705;28;20588;-79
2021/11/25 21:48:11;;;;;;;6.97;2.10;;;5.80;99.90;;;;;;5023144;28;20180;-80
2021/11/25 21:50:37;;;;;;;12.13;2.43;;;5.90;99.90;;;;;;5023387;28;20211;-79
2021/11/25 21:53:04;;;;;;;5.93;2.23;;;5.90;99.90;;;;;;5023108;28;20211;-78
2021/11/25 21:55:33;;;;;;;8.57;2.30;;;5.80;99.90;;;;;;5023480;28;20204;-79
2021/11/25 21:58:03;;;;;;;7.90;2.37;;;5.90;99.90;;;;;;5022440;28;20196;-79
2021/11/25 22:00:32;;;;;;;6.50;1.87;;;5.80;99.90;;;;;;5022961;28;20188;-80
2021/11/25 22:03:00;;;;;;;11.40;3.07;;;5.70;99.90;;;;;;5023284;28;20211;-78
2021/11/25 22:05:29;;;;;;;3.87;2.40;;;5.80;99.90;;;;;;5023908;28;20411;-79
2021/11/25 22:07:57;;;;;;;6.60;2.73;;;5.80;99.90;;;;;;5021064;28;20668;-79
2021/11/25 22:10:24;;;;;;;6.83;2.20;;;5.80;99.90;;;;;;5022998;28;20204;-79
2021/11/25 22:12:51;;;;;;;7.13;2.23;;;5.80;99.90;;;;;;5035251;28;20200;-77
2021/11/25 22:15:23;;;;;;;10.50;3.07;;;5.60;99.90;;;;;;5044473;28;20253;-79
2021/11/25 22:17:50;;;;;;;10.93;3.07;;;5.70;99.90;;;;;;5045155;28;20191;-79
2021/11/25 22:20:28;;;;;;;10.67;3.13;;;5.70;99.90;;;;;;5043622;28;20198;-80
2021/11/25 22:25:39;;;;;;;8.83;3.20;;;5.70;99.90;;;;;;5041093;28;20238;-81
2021/11/25 22:28:20;;;;;;;9.50;3.00;;;5.70;99.90;;;;;;5040587;28;20199;-80
2021/11/25 22:30:49;;;;;;;9.17;3.20;;;5.70;99.90;;;;;;5040686;28;20203;-79
2021/11/25 22:33:16;;;;;;;10.93;3.33;;;5.70;99.90;;;;;;5037336;28;20210;-80
2021/11/25 22:35:44;;;;;;;8.17;3.80;;;5.70;99.90;;;;;;5039895;28;20203;-79
2021/11/25 22:38:11;;;;;;;9.50;3.77;;;5.70;99.90;;;;;;5041187;28;20210;-80
2021/11/25 22:40:39;;;;;;;8.93;3.17;;;5.70;99.90;;;;;;5052416;28;20223;-80
2021/11/25 22:43:12;;;;;;;10.27;3.13;;;5.70;99.90;;;;;;5041244;28;20205;-80
2021/11/25 22:45:46;;;;;;;10.40;5.27;;;5.70;99.90;;;;;;5055344;28;20211;-80
2021/11/25 22:48:15;;;;;;;7.33;3.10;;;5.70;99.90;;;;;;5050491;28;20207;-81
2021/11/25 22:51:02;;;;;;;10.37;3.87;;;5.80;99.90;;;;;;5045921;28;20241;-80
2021/11/25 22:53:32;;;;;;;9.40;3.77;;;5.70;99.90;;;;;;5045388;28;20207;-79
2021/11/25 22:56:02;;;;;;;8.97;3.33;;;5.70;99.90;;;;;;5041919;28;20218;-80
2021/11/25 22:58:30;;;;;;;15.27;4.07;;;5.70;99.90;;;;;;5041124;28;20207;-81
2021/11/25 23:00:58;;;;;;;11.63;4.10;;;5.60;99.90;;;;;;5041133;28;20203;-81
2021/11/25 23:03:28;;;;;;;9.77;3.60;;;5.60;99.90;;;;;;5043028;28;20234;-78
2021/11/25 23:05:57;;;;;;;13.47;3.70;;;5.70;99.90;;;;;;5042872;28;20305;-80
2021/11/25 23:08:32;;;;;;;5.80;3.10;;;5.60;99.90;;;;;;5041969;28;20222;-81
2021/11/25 23:11:10;;;;;;;7.00;3.83;;;5.60;99.90;;;;;;5044708;28;20237;-80
2021/11/25 23:13:38;;;;;;;10.60;3.80;;;5.70;99.90;;;;;;5041670;28;20710;-80
2021/11/25 23:16:05;;;;;;;9.10;3.33;;;5.70;99.90;;;;;;5042059;28;20195;-81
2021/11/25 23:18:37;;;;;;;3.83;2.40;;;5.60;99.90;;;;;;5043770;28;20210;-81
2021/11/25 23:21:06;;;;;;;9.07;3.75;;;5.60;99.90;;;;;;5043280;28;20435;-81
2021/11/25 23:23:33;;;;;;;11.17;3.70;;;5.60;99.90;;;;;;5043331;28;20582;-80
2021/11/25 23:26:01;;;;;;;10.90;2.63;;;5.60;99.90;;;;;;5042177;28;20238;-80
2021/11/25 23:28:28;;;;;;;9.33;3.07;;;5.50;99.90;;;;;;5042098;28;20191;-81
2021/11/25 23:30:58;;;;;;;7.13;3.00;;;5.60;99.90;;;;;;5042593;28;20203;-81
2021/11/25 23:33:25;;;;;;;8.47;2.87;;;5.80;99.90;;;;;;5041375;28;20191;-81
2021/11/25 23:35:57;;;;;;;9.83;3.00;;;5.80;99.90;;;;;;5039815;28;20199;-81
2021/11/25 23:38:24;;;;;;;6.30;2.13;;;5.80;99.90;;;;;;5041359;28;20589;-79
2021/11/25 23:40:51;;;;;;;5.57;2.80;;;5.80;99.90;;;;;;5042177;28;20241;-79
2021/11/25 23:43:21;;;;;;;8.60;2.80;;;5.80;99.90;;;;;;5040915;28;20207;-79
2021/11/25 23:45:54;;;;;;;8.67;3.30;;;5.80;99.90;;;;;;5041928;28;20210;-79
2021/11/25 23:48:25;;;;;;;7.97;2.40;;;5.70;99.90;;;;;;5041653;28;20203;-79
2021/11/25 23:50:57;;;;;;;2.93;2.10;;;5.70;99.90;;;;;;5041812;28;20250;-79
2021/11/25 23:53:25;;;;;;;3.00;2.23;;;5.70;99.90;;;;;;5040268;28;20253;-79
2021/11/25 23:55:54;;;;;;;7.80;2.33;;;5.80;99.90;;;;;;5040893;28;20242;-79
2021/11/25 23:58:22;;;;;;;4.70;1.93;;;5.70;99.90;;;;;;5039556;28;20211;-79
